createdAt,value
2024-01-30T00:01:06.394Z,5.00
2024-01-30T00:03:37.939Z,4.95
2024-01-30T00:06:05.433Z,6.35
2024-01-30T00:08:35.489Z,4.78
2024-01-30T00:11:02.409Z,3.35
2024-01-30T00:13:31.178Z,5.55
2024-01-30T00:15:58.176Z,6.97
2024-01-30T00:18:25.362Z,5.25
2024-01-30T00:20:52.545Z,6.93
2024-01-30T00:23:19.695Z,4.93
2024-01-30T00:25:49.591Z,4.38
2024-01-30T00:28:17.005Z,5.00
2024-01-30T00:30:44.151Z,5.55
2024-01-30T00:33:13.430Z,5.80
2024-01-30T00:35:43.081Z,4.95
2024-01-30T00:38:11.766Z,4.90
2024-01-30T00:40:38.799Z,3.78
2024-01-30T00:43:05.758Z,6.53
2024-01-30T00:45:32.956Z,5.00
2024-01-30T00:48:00.047Z,7.18
2024-01-30T00:50:27.100Z,3.60
2024-01-30T00:52:54.124Z,4.72
2024-01-30T00:55:21.305Z,4.72
2024-01-30T00:57:48.842Z,5.53
2024-01-30T01:00:18.878Z,3.80
2024-01-30T01:02:46.566Z,4.22
2024-01-30T01:05:13.637Z,7.28
2024-01-30T01:07:41.781Z,5.57
2024-01-30T01:10:12.036Z,5.72
2024-01-30T01:12:39.596Z,3.30
2024-01-30T01:15:07.231Z,5.28
2024-01-30T01:17:34.233Z,5.88
2024-01-30T01:20:01.328Z,5.85
2024-01-30T01:22:32.675Z,5.90
2024-01-30T01:25:00.412Z,5.07
2024-01-30T01:27:30.313Z,4.20
2024-01-30T01:29:57.350Z,7.50
2024-01-30T01:32:25.885Z,6.55
2024-01-30T01:34:53.114Z,5.22
2024-01-30T01:37:24.043Z,7.35
2024-01-30T01:39:56.063Z,4.95
2024-01-30T01:42:25.234Z,8.02
2024-01-30T01:44:52.436Z,5.53
2024-01-30T01:47:19.321Z,4.90
2024-01-30T01:49:50.398Z,9.35
2024-01-30T01:52:18.389Z,5.20
2024-01-30T01:54:48.847Z,5.18
2024-01-30T01:57:18.746Z,3.63
2024-01-30T01:59:45.948Z,7.63
2024-01-30T02:02:14.380Z,5.50
2024-01-30T02:04:44.166Z,6.45
2024-01-30T02:07:11.267Z,7.97
2024-01-30T02:09:38.541Z,6.93
2024-01-30T02:12:08.314Z,8.15
2024-01-30T02:14:45.547Z,6.65
2024-01-30T02:17:13.673Z,5.00
2024-01-30T02:19:43.849Z,4.28
2024-01-30T02:22:13.745Z,5.35
2024-01-30T02:24:44.567Z,6.50
2024-01-30T02:27:15.774Z,8.90
2024-01-30T02:29:42.768Z,7.35
2024-01-30T02:32:09.914Z,6.40
2024-01-30T02:34:36.968Z,8.85
2024-01-30T02:37:06.177Z,6.53
2024-01-30T02:39:33.143Z,6.53
2024-01-30T02:42:00.184Z,6.35
2024-01-30T02:44:30.062Z,9.30
2024-01-30T02:46:58.984Z,7.68
2024-01-30T02:49:28.789Z,9.45
2024-01-30T02:51:58.535Z,6.30
2024-01-30T02:54:25.538Z,11.05
2024-01-30T02:56:53.752Z,10.50
2024-01-30T02:59:20.667Z,6.28
2024-01-30T03:01:50.512Z,8.18
2024-01-30T03:04:17.882Z,8.77
2024-01-30T03:06:51.173Z,10.77
2024-01-30T03:09:19.269Z,8.32
2024-01-30T03:11:49.417Z,9.55
2024-01-30T03:14:18.381Z,11.68
2024-01-30T03:16:48.228Z,7.13
2024-01-30T03:19:15.687Z,11.20
2024-01-30T03:21:42.773Z,6.03
2024-01-30T03:24:10.579Z,10.73
2024-01-30T03:26:37.567Z,9.52
2024-01-30T03:29:07.979Z,9.15
2024-01-30T03:31:34.890Z,12.57
2024-01-30T03:34:06.437Z,12.23
2024-01-30T03:36:35.715Z,6.55
2024-01-30T03:39:03.054Z,12.98
2024-01-30T03:41:29.939Z,9.38
2024-01-30T03:43:57.020Z,13.32
2024-01-30T03:46:25.865Z,9.30
2024-01-30T03:48:53.848Z,8.80
2024-01-30T03:51:21.103Z,9.18
2024-01-30T03:53:47.979Z,3.55
2024-01-30T03:56:15.463Z,11.48
2024-01-30T03:58:42.757Z,9.52
2024-01-30T04:01:14.532Z,10.80
2024-01-30T04:03:41.874Z,9.43
2024-01-30T04:06:10.108Z,8.25
2024-01-30T04:08:39.774Z,8.32
2024-01-30T04:11:07.115Z,8.88
2024-01-30T04:13:37.449Z,7.93
2024-01-30T04:16:07.790Z,5.15
2024-01-30T04:18:41.021Z,12.00
2024-01-30T04:21:08.161Z,7.53
2024-01-30T04:23:35.114Z,7.55
2024-01-30T04:26:02.012Z,6.00
2024-01-30T04:28:29.051Z,5.97
2024-01-30T04:30:56.132Z,6.63
2024-01-30T04:33:24.310Z,7.13
2024-01-30T04:35:51.275Z,7.18
2024-01-30T04:38:18.255Z,5.03
2024-01-30T04:40:45.267Z,6.63
2024-01-30T04:43:14.805Z,7.72
2024-01-30T04:45:44.855Z,9.80
2024-01-30T04:48:12.017Z,7.45
2024-01-30T04:50:38.999Z,9.73
2024-01-30T04:53:06.215Z,6.28
2024-01-30T04:55:33.212Z,6.53
2024-01-30T04:58:02.383Z,9.43
2024-01-30T05:00:30.940Z,7.57
2024-01-30T05:03:00.881Z,8.68
2024-01-30T05:05:29.409Z,7.13
2024-01-30T05:07:56.489Z,8.40
2024-01-30T05:10:23.738Z,9.02
2024-01-30T05:12:50.825Z,9.18
2024-01-30T05:15:19.775Z,9.02
2024-01-30T05:17:49.005Z,5.65
2024-01-30T05:20:19.705Z,7.97
2024-01-30T05:22:46.806Z,1.83
2024-01-30T05:25:17.692Z,8.35
2024-01-30T05:27:44.777Z,6.63
2024-01-30T05:30:14.471Z,7.82
2024-01-30T05:32:41.636Z,4.68
2024-01-30T05:35:09.442Z,7.90
2024-01-30T05:37:36.447Z,7.80
2024-01-30T05:40:08.161Z,6.65
2024-01-30T05:42:38.198Z,6.90
2024-01-30T05:45:06.818Z,12.23
2024-01-30T05:47:33.886Z,6.75
2024-01-30T05:50:01.022Z,5.90
2024-01-30T05:52:33.637Z,9.20
2024-01-30T05:55:00.739Z,8.95
2024-01-30T05:57:27.631Z,10.00
2024-01-30T05:59:54.695Z,9.82
2024-01-30T06:02:21.796Z,11.00
2024-01-30T06:04:48.844Z,9.38
2024-01-30T06:07:19.263Z,6.32
2024-01-30T06:09:49.276Z,10.15
2024-01-30T06:12:17.554Z,9.73
2024-01-30T06:14:47.174Z,7.30
2024-01-30T06:17:15.313Z,4.93
2024-01-30T06:19:43.219Z,8.63
2024-01-30T06:22:10.308Z,10.88
2024-01-30T06:24:37.298Z,12.30
2024-01-30T06:27:04.452Z,6.72
2024-01-30T06:29:33.408Z,7.50
2024-01-30T06:32:03.847Z,10.65
2024-01-30T06:34:33.734Z,13.02
2024-01-30T06:37:00.907Z,10.07
2024-01-30T06:39:28.163Z,14.65
2024-01-30T06:41:55.081Z,14.48
2024-01-30T06:44:22.145Z,8.55
2024-01-30T06:46:49.030Z,9.02
2024-01-30T06:49:18.568Z,12.02
2024-01-30T06:51:51.114Z,9.05
2024-01-30T06:54:18.185Z,10.25
2024-01-30T06:56:48.316Z,12.65
2024-01-30T06:59:15.270Z,11.93
2024-01-30T07:01:45.150Z,9.65
2024-01-30T07:04:15.176Z,13.48
2024-01-30T07:06:42.457Z,12.57
2024-01-30T08:07:58.993Z,16.67
2024-01-30T08:10:29.166Z,17.40
2024-01-30T08:12:56.217Z,15.65
2024-01-30T08:15:23.289Z,10.65
2024-01-30T08:17:58.529Z,20.63
2024-01-30T08:20:26.042Z,17.95
2024-01-30T08:22:53.325Z,22.60
2024-01-30T08:25:20.551Z,17.00
2024-01-30T08:27:47.913Z,13.57
2024-01-30T08:30:15.126Z,13.52
2024-01-30T08:32:44.820Z,21.30
2024-01-30T08:35:15.378Z,17.88
2024-01-30T08:37:49.679Z,16.20
2024-01-30T08:40:16.861Z,19.60
2024-01-30T08:42:44.058Z,20.00
2024-01-30T08:45:11.183Z,16.52
2024-01-30T08:47:38.736Z,20.25
2024-01-30T08:50:06.069Z,16.73
2024-01-30T08:52:35.645Z,18.40
2024-01-30T08:55:03.013Z,21.25
2024-01-30T08:57:30.142Z,20.77
2024-01-30T08:59:58.482Z,21.48
2024-01-30T09:02:28.107Z,20.75
2024-01-30T09:04:55.312Z,20.73
2024-01-30T09:07:22.388Z,21.35
2024-01-30T09:09:49.248Z,19.20
2024-01-30T09:12:16.577Z,9.70
2024-01-30T09:14:43.596Z,21.98
2024-01-30T09:17:14.561Z,19.02
2024-01-30T09:19:42.404Z,17.67
2024-01-30T09:22:09.560Z,21.80
2024-01-30T09:24:36.699Z,27.88
2024-01-30T09:27:04.036Z,16.85
2024-01-30T09:29:31.101Z,16.88
2024-01-30T09:32:04.267Z,17.63
2024-01-30T09:34:34.501Z,18.70
2024-01-30T09:37:01.774Z,18.17
2024-01-30T09:39:29.646Z,21.13
2024-01-30T09:42:07.719Z,18.00
2024-01-30T09:44:36.266Z,16.88
2024-01-30T09:47:05.167Z,19.95
2024-01-30T09:49:35.863Z,22.80
2024-01-30T09:52:06.591Z,15.90
2024-01-30T09:54:36.977Z,18.85
2024-01-30T09:57:11.007Z,14.65
2024-01-30T09:59:40.821Z,16.85
2024-01-30T10:02:08.659Z,17.45
2024-01-30T10:04:35.858Z,18.23
2024-01-30T10:07:07.155Z,17.30
2024-01-30T10:09:36.190Z,18.40
2024-01-30T10:12:05.190Z,18.90
2024-01-30T10:14:32.240Z,15.60
2024-01-30T10:16:59.740Z,16.48
2024-01-30T10:19:27.221Z,16.60
2024-01-30T10:21:54.768Z,18.83
2024-01-30T10:24:25.248Z,18.25
2024-01-30T10:26:52.533Z,16.50
2024-01-30T10:29:19.698Z,21.42
2024-01-30T10:31:46.837Z,13.13
2024-01-30T10:34:19.856Z,19.77
2024-01-30T10:36:51.681Z,17.80
2024-01-30T10:39:23.851Z,17.48
2024-01-30T10:41:51.475Z,20.65
2024-01-30T10:44:21.418Z,17.10
2024-01-30T10:46:52.537Z,14.40
2024-01-30T10:49:20.085Z,18.85
2024-01-30T10:51:47.905Z,18.33
2024-01-30T10:54:15.615Z,16.77
2024-01-30T10:56:46.054Z,17.55
2024-01-30T10:59:18.934Z,21.85
2024-01-30T11:01:46.421Z,21.13
2024-01-30T11:04:16.407Z,16.52
2024-01-30T11:06:44.177Z,20.33
2024-01-30T11:09:14.546Z,19.98
2024-01-30T11:11:59.033Z,20.83
2024-01-30T11:14:29.228Z,18.35
2024-01-30T11:16:59.896Z,19.92
2024-01-30T11:19:30.660Z,21.15
2024-01-30T11:22:00.654Z,20.52
2024-01-30T11:24:30.782Z,16.63
2024-01-30T11:26:59.824Z,18.95
2024-01-30T11:29:27.279Z,17.50
2024-01-30T11:31:55.244Z,18.73
2024-01-30T11:34:26.439Z,17.50
2024-01-30T11:37:01.342Z,19.02
2024-01-30T11:39:28.680Z,19.65
2024-01-30T11:41:55.947Z,17.75
2024-01-30T11:44:28.648Z,21.42
2024-01-30T11:46:59.790Z,16.38
2024-01-30T11:49:27.236Z,20.65
2024-01-30T11:51:54.796Z,17.88
2024-01-30T11:54:22.106Z,16.20
2024-01-30T11:56:52.025Z,17.48
2024-01-30T11:59:19.306Z,19.95
2024-01-30T12:01:46.464Z,17.55
2024-01-30T12:04:13.780Z,18.70
2024-01-30T12:06:41.262Z,23.02
2024-01-30T12:09:11.785Z,20.27
2024-01-30T12:11:48.455Z,19.48
2024-01-30T12:14:16.360Z,19.63
2024-01-30T12:16:47.277Z,15.95
2024-01-30T12:19:22.527Z,18.10
2024-01-30T12:21:55.177Z,17.83
2024-01-30T12:24:25.111Z,16.75
2024-01-30T12:26:57.239Z,20.77
2024-01-30T12:29:29.636Z,15.70
2024-01-30T12:31:59.171Z,20.42
2024-01-30T12:34:29.973Z,20.45
2024-01-30T12:36:58.323Z,18.15
2024-01-30T12:39:26.504Z,17.90
2024-01-30T12:41:54.701Z,22.27
2024-01-30T12:44:21.828Z,19.58
2024-01-30T12:46:49.145Z,16.77
2024-01-30T12:49:16.455Z,21.00
2024-01-30T12:51:46.613Z,22.80
2024-01-30T12:54:14.623Z,16.05
2024-01-30T12:56:45.649Z,18.65
2024-01-30T12:59:12.691Z,18.75
2024-01-30T13:01:40.477Z,15.93
2024-01-30T13:04:14.089Z,20.73
2024-01-30T13:06:41.104Z,22.27
2024-01-30T13:09:11.026Z,21.92
2024-01-30T13:11:40.897Z,19.95
2024-01-30T13:14:07.966Z,18.25
2024-01-30T13:16:35.122Z,19.25
2024-01-30T13:19:03.754Z,22.27
2024-01-30T13:21:30.867Z,19.77
2024-01-30T13:23:58.002Z,19.08
2024-01-30T13:26:25.020Z,21.98
2024-01-30T13:28:55.878Z,20.33
2024-01-30T13:31:23.422Z,18.40
2024-01-30T13:33:50.654Z,18.42
2024-01-30T13:36:19.718Z,21.40
2024-01-30T13:38:46.842Z,13.52
2024-01-30T13:41:14.255Z,18.67
2024-01-30T13:43:41.287Z,15.60
2024-01-30T13:46:11.475Z,18.88
2024-01-30T13:48:38.617Z,21.30
2024-01-30T13:51:05.653Z,16.13
2024-01-30T13:53:35.463Z,17.88
2024-01-30T13:56:05.479Z,25.60
2024-01-30T13:58:35.338Z,21.25
2024-01-30T14:01:02.691Z,16.58
2024-01-30T14:03:32.313Z,18.13
2024-01-30T14:05:59.683Z,17.48
2024-01-30T14:08:29.646Z,23.00
2024-01-30T14:11:02.278Z,19.42
2024-01-30T14:13:30.891Z,17.98
2024-01-30T14:15:58.150Z,19.05
2024-01-30T14:18:30.025Z,15.88
2024-01-30T14:21:00.464Z,19.95
2024-01-30T14:23:27.637Z,19.65
2024-01-30T14:26:03.306Z,19.02
2024-01-30T14:28:33.698Z,18.67
2024-01-30T14:31:01.211Z,18.63
2024-01-30T14:33:28.293Z,17.70
2024-01-30T14:35:55.371Z,22.70
2024-01-30T14:38:26.582Z,20.08
2024-01-30T14:40:53.591Z,19.50
2024-01-30T14:43:20.823Z,20.27
2024-01-30T14:45:50.923Z,18.73
2024-01-30T14:48:17.942Z,21.67
2024-01-30T14:50:45.145Z,16.63
2024-01-30T14:53:13.994Z,18.58
2024-01-30T14:55:43.489Z,17.90
2024-01-30T14:58:10.614Z,19.17
2024-01-30T15:00:40.068Z,20.45
2024-01-30T15:03:09.714Z,19.75
2024-01-30T15:05:39.687Z,23.02
2024-01-30T15:08:06.857Z,15.38
2024-01-30T15:10:36.576Z,20.42
2024-01-30T15:13:03.725Z,20.02
2024-01-30T15:15:32.449Z,20.48
2024-01-30T15:18:02.356Z,17.20
2024-01-30T15:20:29.494Z,19.90
2024-01-30T15:22:57.098Z,18.52
2024-01-30T15:25:27.214Z,18.95
2024-01-30T15:27:57.595Z,17.90
2024-01-30T15:30:27.587Z,18.95
2024-01-30T15:32:57.941Z,18.75
2024-01-30T15:35:30.795Z,17.67
2024-01-30T15:37:58.022Z,19.05
2024-01-30T15:40:30.773Z,16.27
2024-01-30T15:42:57.955Z,18.38
2024-01-30T15:45:29.468Z,18.08
2024-01-30T15:47:56.735Z,19.77
2024-01-30T15:50:23.904Z,14.13
2024-01-30T15:52:53.281Z,17.10
2024-01-30T15:55:24.679Z,20.77
2024-01-30T15:57:54.641Z,11.63
2024-01-30T16:00:24.740Z,12.73
2024-01-30T16:02:54.067Z,14.45
2024-01-30T16:05:21.641Z,12.82
2024-01-30T16:07:51.481Z,12.80
2024-01-30T16:10:21.289Z,15.38
2024-01-30T16:12:48.330Z,12.68
2024-01-30T16:15:16.010Z,19.33
2024-01-30T16:17:45.833Z,15.82
2024-01-30T16:20:13.949Z,12.60
2024-01-30T16:22:41.203Z,14.05
2024-01-30T16:25:08.441Z,11.07
2024-01-30T16:27:35.576Z,9.43
2024-01-30T16:30:03.659Z,9.20
2024-01-30T16:32:33.044Z,10.95
2024-01-30T16:35:00.947Z,11.60
2024-01-30T16:37:28.488Z,9.57
2024-01-30T16:39:55.655Z,14.30
2024-01-30T16:42:22.974Z,9.88
2024-01-30T16:44:50.307Z,10.98
2024-01-30T16:47:20.283Z,11.93
2024-01-30T16:49:50.405Z,15.57
2024-01-30T16:52:24.522Z,10.82
2024-01-30T16:54:54.499Z,10.05
2024-01-30T16:57:24.346Z,10.93
2024-01-30T16:59:51.531Z,12.18
2024-01-30T17:02:19.060Z,10.95
2024-01-30T17:04:49.474Z,13.25
2024-01-30T17:07:19.080Z,13.63
2024-01-30T17:09:46.218Z,11.15
2024-01-30T17:12:14.647Z,11.85
2024-01-30T17:14:44.449Z,11.95
2024-01-30T17:17:13.893Z,9.77
2024-01-30T17:19:44.845Z,10.20
2024-01-30T17:22:12.823Z,7.93
2024-01-30T17:24:49.868Z,9.73
2024-01-30T17:27:18.470Z,9.90
2024-01-30T17:29:45.887Z,8.50
2024-01-30T17:32:14.305Z,12.13
2024-01-30T17:34:41.478Z,11.18
2024-01-30T17:37:11.863Z,11.35
2024-01-30T17:39:42.122Z,11.82
2024-01-30T17:42:11.904Z,8.70
2024-01-30T17:44:41.902Z,9.93
2024-01-30T17:47:09.511Z,8.40
2024-01-30T17:49:36.713Z,11.70
2024-01-30T17:52:04.546Z,9.68
2024-01-30T17:54:31.596Z,10.52
2024-01-30T17:56:58.576Z,9.95
2024-01-30T17:59:27.384Z,11.43
2024-01-30T18:01:57.564Z,9.70
2024-01-30T18:04:24.910Z,11.65
2024-01-30T18:06:52.483Z,8.48
2024-01-30T18:09:20.706Z,8.63
2024-01-30T18:11:47.795Z,8.82
2024-01-30T18:14:15.196Z,8.77
2024-01-30T18:16:42.339Z,6.78
2024-01-30T18:19:13.404Z,8.32
2024-01-30T18:21:40.447Z,6.80
2024-01-30T18:24:07.963Z,8.82
2024-01-30T18:26:35.243Z,6.95
2024-01-30T18:29:03.416Z,7.28
2024-01-30T18:31:30.710Z,6.72
2024-01-30T18:33:57.897Z,8.77
2024-01-30T18:36:28.491Z,8.07
2024-01-30T18:38:57.039Z,7.03
2024-01-30T18:41:24.241Z,6.93
2024-01-30T18:43:51.176Z,8.27
2024-01-30T18:46:23.673Z,8.20
2024-01-30T18:48:50.959Z,8.60
2024-01-30T18:51:18.306Z,7.50
2024-01-30T18:53:45.533Z,8.25
2024-01-30T18:56:13.211Z,7.93
2024-01-30T18:58:40.134Z,12.07
2024-01-30T19:01:07.533Z,10.40
2024-01-30T19:03:34.748Z,7.47
2024-01-30T19:06:02.597Z,9.02
2024-01-30T19:08:30.767Z,10.13
2024-01-30T19:10:58.000Z,10.23
2024-01-30T19:13:25.303Z,8.38
2024-01-30T19:15:56.369Z,7.95
2024-01-30T19:18:31.543Z,11.38
2024-01-30T19:21:01.722Z,12.90
2024-01-30T19:23:28.885Z,8.68
2024-01-30T19:25:56.221Z,7.78
2024-01-30T19:28:23.704Z,7.93
2024-01-30T19:30:52.672Z,7.65
2024-01-30T19:33:21.575Z,8.00
2024-01-30T19:35:51.552Z,8.55
2024-01-30T19:38:18.932Z,10.00
2024-01-30T19:40:48.998Z,9.18
2024-01-30T19:43:16.589Z,8.68
2024-01-30T19:45:43.691Z,6.45
2024-01-30T19:48:11.049Z,9.15
2024-01-30T19:50:40.206Z,8.38
2024-01-30T19:53:07.307Z,7.10
2024-01-30T19:55:34.586Z,8.38
2024-01-30T19:58:02.969Z,8.63
2024-01-30T20:00:30.224Z,5.55
2024-01-30T20:03:07.134Z,7.70
2024-01-30T20:05:34.400Z,8.70
2024-01-30T20:08:01.640Z,7.00
2024-01-30T20:10:29.213Z,8.45
2024-01-30T20:12:56.252Z,9.90
2024-01-30T20:15:23.577Z,7.30
2024-01-30T20:17:54.813Z,7.05
2024-01-30T20:20:22.586Z,9.25
2024-01-30T20:22:52.456Z,5.97
2024-01-30T20:25:22.620Z,6.97
2024-01-30T20:27:49.959Z,7.72
2024-01-30T20:30:18.729Z,7.85
2024-01-30T20:32:49.189Z,7.63
2024-01-30T20:35:16.225Z,8.30
2024-01-30T20:37:43.677Z,10.10
2024-01-30T20:40:10.965Z,7.70
2024-01-30T20:42:38.103Z,8.32
2024-01-30T20:45:05.348Z,7.03
2024-01-30T20:47:33.708Z,7.35
2024-01-30T20:50:00.839Z,6.88
2024-01-30T20:52:28.136Z,9.25
2024-01-30T20:54:56.624Z,9.48
2024-01-30T20:57:26.611Z,7.78
2024-01-30T20:59:59.344Z,7.38
2024-01-30T21:02:29.149Z,9.10
2024-01-30T21:04:56.465Z,7.70
2024-01-30T21:07:24.672Z,8.13
2024-01-30T21:09:52.858Z,7.35
2024-01-30T21:12:19.928Z,9.55
2024-01-30T21:14:50.139Z,7.78
2024-01-30T21:17:17.322Z,9.63
2024-01-30T21:19:45.563Z,8.50
2024-01-30T21:22:15.465Z,8.93
2024-01-30T21:24:45.460Z,6.72
2024-01-30T21:27:12.520Z,8.30
2024-01-30T21:29:45.725Z,10.85
2024-01-30T21:32:16.811Z,8.68
2024-01-30T21:34:49.025Z,9.50
2024-01-30T21:37:16.700Z,9.00
2024-01-30T21:39:46.465Z,9.57
2024-01-30T21:42:13.688Z,6.45
2024-01-30T21:44:46.784Z,7.13
2024-01-30T21:47:13.974Z,8.30
2024-01-30T21:49:41.270Z,9.43
2024-01-30T21:52:09.863Z,8.48
2024-01-30T21:54:38.261Z,8.77
2024-01-30T21:57:07.982Z,8.38
2024-01-30T21:59:34.943Z,8.93
2024-01-30T22:02:06.673Z,7.35
2024-01-30T22:04:33.734Z,10.20
2024-01-30T22:07:01.170Z,10.05
2024-01-30T22:09:28.334Z,7.93
2024-01-30T22:11:55.437Z,8.70
2024-01-30T22:14:27.816Z,9.38
2024-01-30T22:16:54.850Z,11.02
2024-01-30T22:19:22.032Z,7.45
2024-01-30T22:21:50.614Z,9.95
2024-01-30T22:24:21.057Z,9.52
2024-01-30T22:26:48.654Z,9.00
2024-01-30T22:29:18.740Z,12.02
2024-01-30T22:31:45.990Z,7.22
2024-01-30T22:34:13.321Z,8.23
2024-01-30T22:36:40.415Z,9.38
2024-01-30T22:39:15.233Z,7.10
2024-01-30T22:41:45.118Z,6.78
2024-01-30T22:44:12.617Z,9.10
2024-01-30T22:46:39.905Z,15.02
2024-01-30T22:49:07.091Z,8.30
2024-01-30T22:51:34.426Z,8.60
2024-01-30T22:54:04.411Z,8.35
2024-01-30T22:56:34.256Z,7.85
2024-01-30T22:59:01.353Z,7.20
2024-01-30T23:01:28.797Z,7.47
2024-01-30T23:03:55.974Z,12.48
2024-01-30T23:06:23.412Z,7.75
2024-01-30T23:08:50.498Z,9.25
2024-01-30T23:11:17.700Z,7.38
2024-01-30T23:13:44.917Z,8.88
2024-01-30T23:16:14.966Z,10.88
2024-01-30T23:18:44.940Z,8.68
2024-01-30T23:21:14.026Z,7.93
2024-01-30T23:23:41.134Z,7.72
2024-01-30T23:26:11.205Z,12.32
2024-01-30T23:28:38.501Z,9.15
2024-01-30T23:31:05.879Z,8.95
2024-01-30T23:33:35.970Z,8.40
2024-01-30T23:36:11.554Z,7.65
2024-01-30T23:38:38.504Z,8.82
2024-01-30T23:41:05.692Z,7.45
2024-01-30T23:43:35.781Z,8.18
2024-01-30T23:46:04.006Z,11.60
2024-01-30T23:48:33.834Z,11.88
2024-01-30T23:51:01.311Z,7.35
2024-01-30T23:53:33.787Z,8.00
2024-01-30T23:56:00.891Z,8.48
2024-01-30T23:58:28.126Z,8.77
